sensor_id;sensor_type;location;lat;lon;timestamp;P1;durP1;ratioP1;P2;durP2;ratioP2
25810;SDS011;13645;52.460;13.910;2022-08-20T00:01:03;12.02;;;10.77;;
25810;SDS011;13645;52.460;13.910;2022-08-20T00:03:32;11.55;;;10.13;;
25810;SDS011;13645;52.460;13.910;2022-08-20T00:08:59;12.52;;;11.13;;
25810;SDS011;13645;52.460;13.910;2022-08-20T00:11:26;12.98;;;11.48;;
25810;SDS011;13645;52.460;13.910;2022-08-20T00:13:56;12.73;;;11.43;;
25810;SDS011;13645;52.460;13.910;2022-08-20T00:16:25;12.57;;;10.77;;
25810;SDS011;13645;52.460;13.910;2022-08-20T00:18:56;11.73;;;9.90;;
25810;SDS011;13645;52.460;13.910;2022-08-20T00:21:23;12.32;;;10.18;;
25810;SDS011;13645;52.460;13.910;2022-08-20T00:23:51;11.80;;;10.68;;
25810;SDS011;13645;52.460;13.910;2022-08-20T00:26:20;17.52;;;11.27;;
25810;SDS011;13645;52.460;13.910;2022-08-20T00:28:48;15.00;;;11.60;;
25810;SDS011;13645;52.460;13.910;2022-08-20T00:31:16;13.68;;;11.20;;
25810;SDS011;13645;52.460;13.910;2022-08-20T00:33:45;12.18;;;10.93;;
25810;SDS011;13645;52.460;13.910;2022-08-20T00:36:12;13.80;;;11.35;;
25810;SDS011;13645;52.460;13.910;2022-08-20T00:38:43;13.10;;;11.75;;
25810;SDS011;13645;52.460;13.910;2022-08-20T00:41:12;13.75;;;10.75;;
25810;SDS011;13645;52.460;13.910;2022-08-20T00:46:18;12.88;;;11.57;;
25810;SDS011;13645;52.460;13.910;2022-08-20T00:48:56;15.95;;;13.15;;
25810;SDS011;13645;52.460;13.910;2022-08-20T00:51:33;14.43;;;13.02;;
25810;SDS011;13645;52.460;13.910;2022-08-20T00:54:10;15.30;;;13.07;;
25810;SDS011;13645;52.460;13.910;2022-08-20T00:56:43;16.67;;;14.02;;
25810;SDS011;13645;52.460;13.910;2022-08-20T00:59:14;15.18;;;12.18;;
25810;SDS011;13645;52.460;13.910;2022-08-20T01:01:45;19.60;;;13.97;;
25810;SDS011;13645;52.460;13.910;2022-08-20T01:04:22;15.02;;;12.40;;
25810;SDS011;13645;52.460;13.910;2022-08-20T01:06:51;14.73;;;13.25;;
25810;SDS011;13645;52.460;13.910;2022-08-20T01:09:19;15.73;;;13.20;;
25810;SDS011;13645;52.460;13.910;2022-08-20T01:12:06;13.80;;;12.40;;
25810;SDS011;13645;52.460;13.910;2022-08-20T01:14:35;18.52;;;13.60;;
25810;SDS011;13645;52.460;13.910;2022-08-20T01:17:22;17.20;;;12.85;;
25810;SDS011;13645;52.460;13.910;2022-08-20T01:20:02;16.08;;;13.00;;
25810;SDS011;13645;52.460;13.910;2022-08-20T01:22:44;16.52;;;13.15;;
25810;SDS011;13645;52.460;13.910;2022-08-20T01:25:40;15.35;;;13.35;;
25810;SDS011;13645;52.460;13.910;2022-08-20T01:28:25;17.83;;;13.52;;
25810;SDS011;13645;52.460;13.910;2022-08-20T01:30:57;16.05;;;13.45;;
25810;SDS011;13645;52.460;13.910;2022-08-20T01:33:24;15.63;;;12.50;;
25810;SDS011;13645;52.460;13.910;2022-08-20T01:35:52;19.60;;;14.27;;
25810;SDS011;13645;52.460;13.910;2022-08-20T01:38:19;14.32;;;12.82;;
25810;SDS011;13645;52.460;13.910;2022-08-20T01:40:59;14.95;;;13.40;;
25810;SDS011;13645;52.460;13.910;2022-08-20T01:43:29;15.48;;;13.90;;
25810;SDS011;13645;52.460;13.910;2022-08-20T01:46:02;16.92;;;13.70;;
25810;SDS011;13645;52.460;13.910;2022-08-20T01:48:29;18.05;;;13.85;;
25810;SDS011;13645;52.460;13.910;2022-08-20T01:53:34;19.70;;;14.25;;
25810;SDS011;13645;52.460;13.910;2022-08-20T01:56:07;16.52;;;14.73;;
25810;SDS011;13645;52.460;13.910;2022-08-20T01:58:38;18.92;;;13.88;;
25810;SDS011;13645;52.460;13.910;2022-08-20T02:01:16;15.85;;;14.15;;
25810;SDS011;13645;52.460;13.910;2022-08-20T02:03:49;16.90;;;14.77;;
25810;SDS011;13645;52.460;13.910;2022-08-20T02:06:17;19.00;;;14.30;;
25810;SDS011;13645;52.460;13.910;2022-08-20T02:08:44;14.73;;;13.15;;
25810;SDS011;13645;52.460;13.910;2022-08-20T02:11:11;16.48;;;14.73;;
25810;SDS011;13645;52.460;13.910;2022-08-20T02:13:38;15.38;;;13.75;;
25810;SDS011;13645;52.460;13.910;2022-08-20T02:16:06;17.80;;;13.57;;
25810;SDS011;13645;52.460;13.910;2022-08-20T02:18:33;15.05;;;13.55;;
25810;SDS011;13645;52.460;13.910;2022-08-20T02:21:00;14.77;;;12.98;;
25810;SDS011;13645;52.460;13.910;2022-08-20T02:23:27;14.18;;;12.77;;
25810;SDS011;13645;52.460;13.910;2022-08-20T02:25:54;17.23;;;13.15;;
25810;SDS011;13645;52.460;13.910;2022-08-20T02:28:21;13.88;;;12.48;;
25810;SDS011;13645;52.460;13.910;2022-08-20T02:30:50;13.38;;;11.98;;
25810;SDS011;13645;52.460;13.910;2022-08-20T02:33:19;14.63;;;12.77;;
25810;SDS011;13645;52.460;13.910;2022-08-20T02:35:49;13.90;;;12.13;;
25810;SDS011;13645;52.460;13.910;2022-08-20T02:38:17;13.35;;;12.05;;
25810;SDS011;13645;52.460;13.910;2022-08-20T02:40:44;13.82;;;11.02;;
25810;SDS011;13645;52.460;13.910;2022-08-20T02:43:11;12.70;;;11.40;;
25810;SDS011;13645;52.460;13.910;2022-08-20T02:45:39;13.60;;;11.27;;
25810;SDS011;13645;52.460;13.910;2022-08-20T02:48:10;12.77;;;11.48;;
25810;SDS011;13645;52.460;13.910;2022-08-20T02:50:47;11.77;;;10.15;;
25810;SDS011;13645;52.460;13.910;2022-08-20T02:53:16;11.88;;;10.75;;
25810;SDS011;13645;52.460;13.910;2022-08-20T02:55:43;13.55;;;11.07;;
25810;SDS011;13645;52.460;13.910;2022-08-20T02:58:10;12.38;;;11.18;;
25810;SDS011;13645;52.460;13.910;2022-08-20T03:00:37;11.68;;;10.48;;
25810;SDS011;13645;52.460;13.910;2022-08-20T03:03:06;12.27;;;11.07;;
25810;SDS011;13645;52.460;13.910;2022-08-20T03:05:34;12.27;;;10.93;;
25810;SDS011;13645;52.460;13.910;2022-08-20T03:08:04;12.15;;;10.85;;
25810;SDS011;13645;52.460;13.910;2022-08-20T03:10:34;12.10;;;10.77;;
25810;SDS011;13645;52.460;13.910;2022-08-20T03:13:02;11.40;;;10.18;;
25810;SDS011;13645;52.460;13.910;2022-08-20T03:15:31;10.80;;;9.80;;
25810;SDS011;13645;52.460;13.910;2022-08-20T03:17:58;11.90;;;9.90;;
25810;SDS011;13645;52.460;13.910;2022-08-20T03:20:26;10.95;;;9.88;;
25810;SDS011;13645;52.460;13.910;2022-08-20T03:22:53;10.02;;;9.02;;
25810;SDS011;13645;52.460;13.910;2022-08-20T03:25:20;10.10;;;9.20;;
25810;SDS011;13645;52.460;13.910;2022-08-20T03:27:47;11.38;;;10.15;;
25810;SDS011;13645;52.460;13.910;2022-08-20T03:30:20;12.15;;;10.32;;
25810;SDS011;13645;52.460;13.910;2022-08-20T03:32:49;10.80;;;9.52;;
25810;SDS011;13645;52.460;13.910;2022-08-20T03:35:16;10.50;;;9.38;;
25810;SDS011;13645;52.460;13.910;2022-08-20T03:37:44;11.20;;;9.27;;
25810;SDS011;13645;52.460;13.910;2022-08-20T03:40:23;10.20;;;9.15;;
25810;SDS011;13645;52.460;13.910;2022-08-20T03:42:52;10.77;;;9.02;;
25810;SDS011;13645;52.460;13.910;2022-08-20T03:45:19;9.63;;;8.60;;
25810;SDS011;13645;52.460;13.910;2022-08-20T03:47:47;15.40;;;8.98;;
25810;SDS011;13645;52.460;13.910;2022-08-20T03:50:17;8.93;;;7.90;;
25810;SDS011;13645;52.460;13.910;2022-08-20T03:52:48;8.55;;;7.20;;
25810;SDS011;13645;52.460;13.910;2022-08-20T03:55:16;7.63;;;6.82;;
25810;SDS011;13645;52.460;13.910;2022-08-20T03:57:45;10.18;;;7.88;;
25810;SDS011;13645;52.460;13.910;2022-08-20T04:00:13;7.55;;;6.85;;
25810;SDS011;13645;52.460;13.910;2022-08-20T04:02:44;9.73;;;7.88;;
25810;SDS011;13645;52.460;13.910;2022-08-20T04:05:11;8.95;;;7.15;;
25810;SDS011;13645;52.460;13.910;2022-08-20T04:07:39;8.30;;;7.50;;
25810;SDS011;13645;52.460;13.910;2022-08-20T04:10:08;9.63;;;8.25;;
25810;SDS011;13645;52.460;13.910;2022-08-20T04:12:37;10.50;;;9.20;;
25810;SDS011;13645;52.460;13.910;2022-08-20T04:15:17;12.88;;;11.07;;
25810;SDS011;13645;52.460;13.910;2022-08-20T04:17:46;14.40;;;12.30;;
25810;SDS011;13645;52.460;13.910;2022-08-20T04:20:19;13.90;;;12.15;;
25810;SDS011;13645;52.460;13.910;2022-08-20T04:22:49;17.25;;;13.00;;
25810;SDS011;13645;52.460;13.910;2022-08-20T04:25:25;16.95;;;12.65;;
25810;SDS011;13645;52.460;13.910;2022-08-20T04:27:55;21.77;;;16.25;;
25810;SDS011;13645;52.460;13.910;2022-08-20T04:30:27;23.02;;;16.80;;
25810;SDS011;13645;52.460;13.910;2022-08-20T04:32:55;21.00;;;16.67;;
25810;SDS011;13645;52.460;13.910;2022-08-20T04:35:22;25.30;;;18.98;;
25810;SDS011;13645;52.460;13.910;2022-08-20T04:37:56;24.33;;;19.33;;
25810;SDS011;13645;52.460;13.910;2022-08-20T04:40:31;24.85;;;21.05;;
25810;SDS011;13645;52.460;13.910;2022-08-20T04:43:22;23.20;;;20.60;;
25810;SDS011;13645;52.460;13.910;2022-08-20T04:45:51;29.27;;;20.88;;
25810;SDS011;13645;52.460;13.910;2022-08-20T04:48:19;24.80;;;18.77;;
25810;SDS011;13645;52.460;13.910;2022-08-20T04:50:49;23.15;;;20.58;;
25810;SDS011;13645;52.460;13.910;2022-08-20T04:53:17;29.33;;;23.10;;
25810;SDS011;13645;52.460;13.910;2022-08-20T04:55:54;26.67;;;19.85;;
25810;SDS011;13645;52.460;13.910;2022-08-20T04:58:29;32.00;;;22.25;;
25810;SDS011;13645;52.460;13.910;2022-08-20T05:01:00;27.90;;;21.70;;
25810;SDS011;13645;52.460;13.910;2022-08-20T05:03:29;31.95;;;23.13;;
25810;SDS011;13645;52.460;13.910;2022-08-20T05:05:57;27.80;;;21.48;;
25810;SDS011;13645;52.460;13.910;2022-08-20T05:08:26;29.27;;;23.30;;
25810;SDS011;13645;52.460;13.910;2022-08-20T05:10:54;30.50;;;23.15;;
25810;SDS011;13645;52.460;13.910;2022-08-20T05:13:42;29.17;;;22.63;;
25810;SDS011;13645;52.460;13.910;2022-08-20T05:16:09;29.58;;;22.15;;
25810;SDS011;13645;52.460;13.910;2022-08-20T05:18:36;29.60;;;21.80;;
25810;SDS011;13645;52.460;13.910;2022-08-20T05:21:03;27.60;;;22.05;;
25810;SDS011;13645;52.460;13.910;2022-08-20T05:23:31;28.55;;;22.95;;
25810;SDS011;13645;52.460;13.910;2022-08-20T05:26:00;28.38;;;21.52;;
25810;SDS011;13645;52.460;13.910;2022-08-20T05:28:30;31.95;;;22.95;;
25810;SDS011;13645;52.460;13.910;2022-08-20T05:31:02;26.52;;;21.65;;
25810;SDS011;13645;52.460;13.910;2022-08-20T05:33:32;31.35;;;23.52;;
25810;SDS011;13645;52.460;13.910;2022-08-20T05:35:59;33.83;;;23.67;;
25810;SDS011;13645;52.460;13.910;2022-08-20T05:38:26;30.75;;;24.10;;
25810;SDS011;13645;52.460;13.910;2022-08-20T05:40:54;33.05;;;24.05;;
25810;SDS011;13645;52.460;13.910;2022-08-20T05:43:21;30.23;;;22.38;;
25810;SDS011;13645;52.460;13.910;2022-08-20T05:45:48;32.95;;;25.08;;
25810;SDS011;13645;52.460;13.910;2022-08-20T05:48:22;30.17;;;22.92;;
25810;SDS011;13645;52.460;13.910;2022-08-20T05:50:50;27.92;;;22.63;;
25810;SDS011;13645;52.460;13.910;2022-08-20T05:53:20;27.98;;;22.85;;
25810;SDS011;13645;52.460;13.910;2022-08-20T05:55:48;31.65;;;23.30;;
25810;SDS011;13645;52.460;13.910;2022-08-20T05:58:17;30.77;;;22.70;;
25810;SDS011;13645;52.460;13.910;2022-08-20T06:00:52;29.77;;;23.45;;
25810;SDS011;13645;52.460;13.910;2022-08-20T06:03:20;29.85;;;23.77;;
25810;SDS011;13645;52.460;13.910;2022-08-20T06:06:05;29.98;;;22.58;;
25810;SDS011;13645;52.460;13.910;2022-08-20T06:08:46;35.88;;;25.15;;
25810;SDS011;13645;52.460;13.910;2022-08-20T06:11:13;30.25;;;23.63;;
25810;SDS011;13645;52.460;13.910;2022-08-20T06:13:40;28.67;;;22.00;;
25810;SDS011;13645;52.460;13.910;2022-08-20T06:16:06;32.70;;;24.10;;
25810;SDS011;13645;52.460;13.910;2022-08-20T06:18:33;32.25;;;23.55;;
25810;SDS011;13645;52.460;13.910;2022-08-20T06:21:00;33.47;;;24.77;;
25810;SDS011;13645;52.460;13.910;2022-08-20T06:23:26;31.98;;;24.88;;
25810;SDS011;13645;52.460;13.910;2022-08-20T06:26:13;37.17;;;25.50;;
25810;SDS011;13645;52.460;13.910;2022-08-20T06:28:49;30.67;;;25.05;;
25810;SDS011;13645;52.460;13.910;2022-08-20T06:31:19;31.08;;;24.60;;
25810;SDS011;13645;52.460;13.910;2022-08-20T06:33:46;37.38;;;26.45;;
25810;SDS011;13645;52.460;13.910;2022-08-20T06:36:13;30.15;;;23.67;;
25810;SDS011;13645;52.460;13.910;2022-08-20T06:38:44;32.72;;;24.55;;
25810;SDS011;13645;52.460;13.910;2022-08-20T06:41:11;31.02;;;24.83;;
25810;SDS011;13645;52.460;13.910;2022-08-20T06:43:38;30.77;;;24.45;;
25810;SDS011;13645;52.460;13.910;2022-08-20T06:46:05;32.00;;;25.40;;
25810;SDS011;13645;52.460;13.910;2022-08-20T06:48:32;38.67;;;29.25;;
25810;SDS011;13645;52.460;13.910;2022-08-20T06:50:59;36.53;;;25.48;;
25810;SDS011;13645;52.460;13.910;2022-08-20T06:53:26;35.00;;;24.80;;
25810;SDS011;13645;52.460;13.910;2022-08-20T06:55:54;30.65;;;24.75;;
25810;SDS011;13645;52.460;13.910;2022-08-20T06:58:24;33.50;;;24.73;;
25810;SDS011;13645;52.460;13.910;2022-08-20T07:01:03;30.10;;;24.67;;
25810;SDS011;13645;52.460;13.910;2022-08-20T07:03:35;32.03;;;24.83;;
25810;SDS011;13645;52.460;13.910;2022-08-20T07:06:03;32.17;;;24.63;;
25810;SDS011;13645;52.460;13.910;2022-08-20T07:08:31;31.42;;;23.13;;
25810;SDS011;13645;52.460;13.910;2022-08-20T07:10:58;31.90;;;24.75;;
25810;SDS011;13645;52.460;13.910;2022-08-20T07:13:25;30.08;;;23.75;;
25810;SDS011;13645;52.460;13.910;2022-08-20T07:15:53;29.45;;;24.58;;
25810;SDS011;13645;52.460;13.910;2022-08-20T07:18:20;31.42;;;23.40;;
25810;SDS011;13645;52.460;13.910;2022-08-20T07:20:54;30.90;;;24.88;;
25810;SDS011;13645;52.460;13.910;2022-08-20T07:23:23;29.98;;;22.75;;
25810;SDS011;13645;52.460;13.910;2022-08-20T07:25:51;28.83;;;23.85;;
25810;SDS011;13645;52.460;13.910;2022-08-20T07:28:21;29.58;;;25.10;;
25810;SDS011;13645;52.460;13.910;2022-08-20T07:30:50;35.45;;;27.42;;
25810;SDS011;13645;52.460;13.910;2022-08-20T07:33:39;27.63;;;22.67;;
25810;SDS011;13645;52.460;13.910;2022-08-20T07:36:07;29.33;;;22.55;;
25810;SDS011;13645;52.460;13.910;2022-08-20T07:38:34;27.92;;;22.85;;
25810;SDS011;13645;52.460;13.910;2022-08-20T07:41:05;30.33;;;22.85;;
25810;SDS011;13645;52.460;13.910;2022-08-20T07:43:35;29.88;;;23.70;;
25810;SDS011;13645;52.460;13.910;2022-08-20T07:46:02;30.00;;;24.33;;
25810;SDS011;13645;52.460;13.910;2022-08-20T07:48:34;28.58;;;23.08;;
25810;SDS011;13645;52.460;13.910;2022-08-20T07:51:05;26.55;;;23.48;;
25810;SDS011;13645;52.460;13.910;2022-08-20T07:53:37;26.83;;;21.80;;
25810;SDS011;13645;52.460;13.910;2022-08-20T07:56:07;28.88;;;22.08;;
25810;SDS011;13645;52.460;13.910;2022-08-20T07:58:37;25.45;;;22.67;;
25810;SDS011;13645;52.460;13.910;2022-08-20T08:01:12;29.77;;;22.98;;
25810;SDS011;13645;52.460;13.910;2022-08-20T08:03:39;27.58;;;21.77;;
25810;SDS011;13645;52.460;13.910;2022-08-20T08:06:15;28.20;;;22.75;;
25810;SDS011;13645;52.460;13.910;2022-08-20T08:09:04;28.90;;;24.35;;
25810;SDS011;13645;52.460;13.910;2022-08-20T08:12:06;26.90;;;22.77;;
25810;SDS011;13645;52.460;13.910;2022-08-20T08:14:40;25.27;;;22.30;;
25810;SDS011;13645;52.460;13.910;2022-08-20T08:17:10;29.92;;;24.08;;
25810;SDS011;13645;52.460;13.910;2022-08-20T08:19:39;30.90;;;24.20;;
25810;SDS011;13645;52.460;13.910;2022-08-20T08:22:14;33.13;;;25.23;;
25810;SDS011;13645;52.460;13.910;2022-08-20T08:24:44;30.83;;;24.27;;
25810;SDS011;13645;52.460;13.910;2022-08-20T08:27:22;32.58;;;24.80;;
25810;SDS011;13645;52.460;13.910;2022-08-20T08:29:49;31.73;;;25.95;;
25810;SDS011;13645;52.460;13.910;2022-08-20T08:32:16;28.85;;;23.10;;
25810;SDS011;13645;52.460;13.910;2022-08-20T08:34:42;31.92;;;24.95;;
25810;SDS011;13645;52.460;13.910;2022-08-20T08:37:13;30.08;;;24.17;;
25810;SDS011;13645;52.460;13.910;2022-08-20T08:39:39;29.98;;;24.75;;
25810;SDS011;13645;52.460;13.910;2022-08-20T08:45:08;28.55;;;23.23;;
25810;SDS011;13645;52.460;13.910;2022-08-20T08:47:36;31.42;;;24.65;;
25810;SDS011;13645;52.460;13.910;2022-08-20T08:50:06;30.50;;;23.77;;
25810;SDS011;13645;52.460;13.910;2022-08-20T08:53:06;31.70;;;23.30;;
25810;SDS011;13645;52.460;13.910;2022-08-20T08:55:35;30.25;;;24.40;;
25810;SDS011;13645;52.460;13.910;2022-08-20T08:58:02;30.27;;;24.77;;
25810;SDS011;13645;52.460;13.910;2022-08-20T09:00:42;28.88;;;23.13;;
25810;SDS011;13645;52.460;13.910;2022-08-20T09:03:27;30.63;;;25.15;;
25810;SDS011;13645;52.460;13.910;2022-08-20T09:05:58;29.58;;;23.45;;
25810;SDS011;13645;52.460;13.910;2022-08-20T09:08:31;30.27;;;23.77;;
25810;SDS011;13645;52.460;13.910;2022-08-20T09:11:34;29.83;;;24.85;;
25810;SDS011;13645;52.460;13.910;2022-08-20T09:14:11;30.30;;;24.55;;
25810;SDS011;13645;52.460;13.910;2022-08-20T09:16:38;28.88;;;23.67;;
25810;SDS011;13645;52.460;13.910;2022-08-20T09:19:18;32.83;;;26.02;;
25810;SDS011;13645;52.460;13.910;2022-08-20T09:21:45;30.33;;;25.35;;
25810;SDS011;13645;52.460;13.910;2022-08-20T09:24:12;36.13;;;27.02;;
25810;SDS011;13645;52.460;13.910;2022-08-20T09:26:39;33.08;;;25.98;;
25810;SDS011;13645;52.460;13.910;2022-08-20T09:29:05;35.58;;;27.58;;
25810;SDS011;13645;52.460;13.910;2022-08-20T09:31:32;34.00;;;27.15;;
25810;SDS011;13645;52.460;13.910;2022-08-20T09:33:59;33.90;;;28.10;;
25810;SDS011;13645;52.460;13.910;2022-08-20T09:36:26;32.25;;;25.85;;
25810;SDS011;13645;52.460;13.910;2022-08-20T09:38:57;30.48;;;26.35;;
25810;SDS011;13645;52.460;13.910;2022-08-20T09:41:24;32.60;;;25.23;;
25810;SDS011;13645;52.460;13.910;2022-08-20T09:43:51;36.35;;;26.55;;
25810;SDS011;13645;52.460;13.910;2022-08-20T09:46:19;38.20;;;28.42;;
25810;SDS011;13645;52.460;13.910;2022-08-20T09:48:52;35.35;;;29.00;;
25810;SDS011;13645;52.460;13.910;2022-08-20T09:51:37;30.15;;;26.30;;
25810;SDS011;13645;52.460;13.910;2022-08-20T09:58:36;37.25;;;27.95;;
25810;SDS011;13645;52.460;13.910;2022-08-20T10:01:24;33.33;;;28.25;;
25810;SDS011;13645;52.460;13.910;2022-08-20T10:03:50;35.83;;;28.58;;
25810;SDS011;13645;52.460;13.910;2022-08-20T10:08:48;36.20;;;29.63;;
25810;SDS011;13645;52.460;13.910;2022-08-20T10:11:15;35.20;;;28.88;;
25810;SDS011;13645;52.460;13.910;2022-08-20T10:13:43;35.78;;;28.63;;
25810;SDS011;13645;52.460;13.910;2022-08-20T10:16:09;42.27;;;30.60;;
25810;SDS011;13645;52.460;13.910;2022-08-20T10:18:35;41.00;;;29.92;;
25810;SDS011;13645;52.460;13.910;2022-08-20T10:21:07;40.40;;;30.35;;
25810;SDS011;13645;52.460;13.910;2022-08-20T10:23:36;41.60;;;30.25;;
25810;SDS011;13645;52.460;13.910;2022-08-20T10:26:03;36.65;;;28.02;;
25810;SDS011;13645;52.460;13.910;2022-08-20T10:28:32;37.53;;;29.83;;
25810;SDS011;13645;52.460;13.910;2022-08-20T10:30:59;32.17;;;26.38;;
25810;SDS011;13645;52.460;13.910;2022-08-20T10:33:26;34.08;;;27.00;;
25810;SDS011;13645;52.460;13.910;2022-08-20T10:35:53;36.25;;;29.42;;
25810;SDS011;13645;52.460;13.910;2022-08-20T10:38:25;37.08;;;26.30;;
25810;SDS011;13645;52.460;13.910;2022-08-20T10:40:51;35.88;;;29.00;;
25810;SDS011;13645;52.460;13.910;2022-08-20T10:43:18;32.95;;;27.23;;
25810;SDS011;13645;52.460;13.910;2022-08-20T10:45:45;35.15;;;27.10;;
25810;SDS011;13645;52.460;13.910;2022-08-20T10:48:12;37.25;;;29.40;;
25810;SDS011;13645;52.460;13.910;2022-08-20T10:50:43;36.40;;;28.48;;
25810;SDS011;13645;52.460;13.910;2022-08-20T10:53:10;39.85;;;30.73;;
25810;SDS011;13645;52.460;13.910;2022-08-20T10:55:38;30.08;;;26.08;;
25810;SDS011;13645;52.460;13.910;2022-08-20T10:58:05;37.30;;;27.40;;
25810;SDS011;13645;52.460;13.910;2022-08-20T11:00:36;29.23;;;24.67;;
25810;SDS011;13645;52.460;13.910;2022-08-20T11:03:03;33.72;;;28.70;;
25810;SDS011;13645;52.460;13.910;2022-08-20T11:05:30;35.67;;;30.08;;
25810;SDS011;13645;52.460;13.910;2022-08-20T11:07:57;36.80;;;29.30;;
25810;SDS011;13645;52.460;13.910;2022-08-20T11:10:27;30.83;;;25.10;;
25810;SDS011;13645;52.460;13.910;2022-08-20T11:12:55;32.20;;;27.73;;
25810;SDS011;13645;52.460;13.910;2022-08-20T11:15:22;30.00;;;25.75;;
25810;SDS011;13645;52.460;13.910;2022-08-20T11:17:49;32.75;;;27.85;;
25810;SDS011;13645;52.460;13.910;2022-08-20T11:20:17;37.25;;;27.13;;
25810;SDS011;13645;52.460;13.910;2022-08-20T11:22:45;38.25;;;29.80;;
25810;SDS011;13645;52.460;13.910;2022-08-20T11:25:12;39.60;;;30.83;;
25810;SDS011;13645;52.460;13.910;2022-08-20T11:27:41;33.33;;;27.95;;
25810;SDS011;13645;52.460;13.910;2022-08-20T11:30:11;36.88;;;28.30;;
25810;SDS011;13645;52.460;13.910;2022-08-20T11:32:40;35.85;;;28.92;;
25810;SDS011;13645;52.460;13.910;2022-08-20T11:35:07;36.40;;;29.13;;
25810;SDS011;13645;52.460;13.910;2022-08-20T11:37:54;45.67;;;32.15;;
25810;SDS011;13645;52.460;13.910;2022-08-20T11:40:24;40.20;;;32.88;;
25810;SDS011;13645;52.460;13.910;2022-08-20T11:42:52;38.85;;;30.17;;
25810;SDS011;13645;52.460;13.910;2022-08-20T11:45:39;38.25;;;31.17;;
25810;SDS011;13645;52.460;13.910;2022-08-20T11:48:05;38.78;;;28.98;;
25810;SDS011;13645;52.460;13.910;2022-08-20T11:50:32;33.22;;;26.75;;
25810;SDS011;13645;52.460;13.910;2022-08-20T11:52:59;36.58;;;28.67;;
25810;SDS011;13645;52.460;13.910;2022-08-20T11:55:27;36.00;;;29.05;;
25810;SDS011;13645;52.460;13.910;2022-08-20T11:57:56;35.78;;;28.95;;
25810;SDS011;13645;52.460;13.910;2022-08-20T12:00:25;31.63;;;25.35;;
25810;SDS011;13645;52.460;13.910;2022-08-20T12:02:58;35.17;;;26.57;;
25810;SDS011;13645;52.460;13.910;2022-08-20T12:05:26;39.65;;;30.85;;
25810;SDS011;13645;52.460;13.910;2022-08-20T12:07:55;35.95;;;29.33;;
25810;SDS011;13645;52.460;13.910;2022-08-20T12:10:23;35.92;;;28.45;;
25810;SDS011;13645;52.460;13.910;2022-08-20T12:12:51;32.05;;;25.23;;
25810;SDS011;13645;52.460;13.910;2022-08-20T12:15:19;30.70;;;26.15;;
25810;SDS011;13645;52.460;13.910;2022-08-20T12:17:45;33.28;;;25.85;;
25810;SDS011;13645;52.460;13.910;2022-08-20T12:20:12;34.80;;;27.35;;
25810;SDS011;13645;52.460;13.910;2022-08-20T12:22:40;27.08;;;24.15;;
25810;SDS011;13645;52.460;13.910;2022-08-20T12:25:07;31.88;;;27.17;;
25810;SDS011;13645;52.460;13.910;2022-08-20T12:27:34;27.70;;;22.95;;
25810;SDS011;13645;52.460;13.910;2022-08-20T12:30:07;30.52;;;25.58;;
25810;SDS011;13645;52.460;13.910;2022-08-20T12:35:03;30.75;;;23.92;;
25810;SDS011;13645;52.460;13.910;2022-08-20T12:37:31;29.77;;;22.77;;
25810;SDS011;13645;52.460;13.910;2022-08-20T12:42:32;25.58;;;21.63;;
25810;SDS011;13645;52.460;13.910;2022-08-20T12:44:59;27.45;;;22.80;;
25810;SDS011;13645;52.460;13.910;2022-08-20T12:47:26;24.95;;;20.42;;
25810;SDS011;13645;52.460;13.910;2022-08-20T12:49:58;26.42;;;21.25;;
25810;SDS011;13645;52.460;13.910;2022-08-20T12:52:33;31.02;;;19.90;;
25810;SDS011;13645;52.460;13.910;2022-08-20T12:55:00;21.55;;;19.23;;
25810;SDS011;13645;52.460;13.910;2022-08-20T12:57:29;19.98;;;17.27;;
25810;SDS011;13645;52.460;13.910;2022-08-20T13:00:12;21.10;;;18.90;;
25810;SDS011;13645;52.460;13.910;2022-08-20T13:02:46;20.67;;;16.23;;
25810;SDS011;13645;52.460;13.910;2022-08-20T13:05:17;17.45;;;14.70;;
25810;SDS011;13645;52.460;13.910;2022-08-20T13:07:45;16.13;;;13.68;;
25810;SDS011;13645;52.460;13.910;2022-08-20T13:10:14;16.45;;;12.85;;
25810;SDS011;13645;52.460;13.910;2022-08-20T13:12:49;15.60;;;11.63;;
25810;SDS011;13645;52.460;13.910;2022-08-20T13:15:16;15.85;;;11.05;;
25810;SDS011;13645;52.460;13.910;2022-08-20T13:17:44;15.10;;;9.95;;
25810;SDS011;13645;52.460;13.910;2022-08-20T13:20:12;13.30;;;10.77;;
25810;SDS011;13645;52.460;13.910;2022-08-20T13:22:41;14.02;;;10.20;;
25810;SDS011;13645;52.460;13.910;2022-08-20T13:25:09;13.73;;;10.68;;
25810;SDS011;13645;52.460;13.910;2022-08-20T13:27:37;12.63;;;11.13;;
25810;SDS011;13645;52.460;13.910;2022-08-20T13:30:07;10.50;;;9.48;;
25810;SDS011;13645;52.460;13.910;2022-08-20T13:32:36;16.52;;;11.73;;
25810;SDS011;13645;52.460;13.910;2022-08-20T13:35:03;13.13;;;10.60;;
25810;SDS011;13645;52.460;13.910;2022-08-20T13:37:30;13.63;;;11.43;;
25810;SDS011;13645;52.460;13.910;2022-08-20T13:39:58;13.90;;;12.23;;
25810;SDS011;13645;52.460;13.910;2022-08-20T13:42:25;12.75;;;10.45;;
25810;SDS011;13645;52.460;13.910;2022-08-20T13:44:53;15.85;;;11.80;;
25810;SDS011;13645;52.460;13.910;2022-08-20T13:47:21;11.07;;;9.98;;
25810;SDS011;13645;52.460;13.910;2022-08-20T13:49:54;14.07;;;12.55;;
25810;SDS011;13645;52.460;13.910;2022-08-20T13:52:23;13.65;;;10.90;;
25810;SDS011;13645;52.460;13.910;2022-08-20T13:54:51;11.90;;;10.63;;
25810;SDS011;13645;52.460;13.910;2022-08-20T13:57:18;14.85;;;9.75;;
25810;SDS011;13645;52.460;13.910;2022-08-20T13:59:47;11.02;;;9.52;;
25810;SDS011;13645;52.460;13.910;2022-08-20T14:02:15;12.95;;;9.55;;
25810;SDS011;13645;52.460;13.910;2022-08-20T14:04:43;11.02;;;8.85;;
25810;SDS011;13645;52.460;13.910;2022-08-20T14:07:12;10.55;;;9.00;;
25810;SDS011;13645;52.460;13.910;2022-08-20T14:09:57;15.25;;;9.02;;
25810;SDS011;13645;52.460;13.910;2022-08-20T14:12:33;8.93;;;8.13;;
25810;SDS011;13645;52.460;13.910;2022-08-20T14:15:00;12.10;;;8.90;;
25810;SDS011;13645;52.460;13.910;2022-08-20T14:17:27;9.73;;;8.75;;
25810;SDS011;13645;52.460;13.910;2022-08-20T14:19:58;10.55;;;8.05;;
25810;SDS011;13645;52.460;13.910;2022-08-20T14:22:45;13.65;;;8.60;;
25810;SDS011;13645;52.460;13.910;2022-08-20T14:25:13;10.60;;;7.47;;
25810;SDS011;13645;52.460;13.910;2022-08-20T14:27:42;8.75;;;7.13;;
25810;SDS011;13645;52.460;13.910;2022-08-20T14:30:11;12.02;;;7.57;;
25810;SDS011;13645;52.460;13.910;2022-08-20T14:32:58;8.88;;;6.95;;
25810;SDS011;13645;52.460;13.910;2022-08-20T14:35:25;8.00;;;6.57;;
25810;SDS011;13645;52.460;13.910;2022-08-20T14:37:52;11.52;;;6.78;;
25810;SDS011;13645;52.460;13.910;2022-08-20T14:40:22;10.50;;;6.53;;
25810;SDS011;13645;52.460;13.910;2022-08-20T14:42:50;9.32;;;7.78;;
25810;SDS011;13645;52.460;13.910;2022-08-20T14:45:18;11.65;;;7.00;;
25810;SDS011;13645;52.460;13.910;2022-08-20T14:47:46;9.43;;;6.82;;
25810;SDS011;13645;52.460;13.910;2022-08-20T14:50:21;9.25;;;6.88;;
25810;SDS011;13645;52.460;13.910;2022-08-20T14:52:53;8.50;;;7.40;;